Time;durP1;ratioP1;P1;durP2;ratioP2;P2;SDS_P1;SDS_P2;PMS_P1;PMS_P2;Temp;Humidity;BMP_temperature;BMP_pressure;BME280_temperature;BME280_humidity;BME280_pressure;Samples;Min_cycle;Max_cycle;Signal;HPM_P1;HPM_P2
2023/01/02 00:00:23;;;;;;;19.30;8.32;;;;;;;10.45;100.00;100788.22;5023448;28;20261;-69
2023/01/02 00:02:49;;;;;;;16.52;8.25;;;;;;;10.46;100.00;100787.38;5031000;28;20030;-69
2023/01/02 00:05:14;;;;;;;18.63;8.07;;;;;;;10.46;100.00;100781.25;5035862;28;20670;-69
2023/01/02 00:07:39;;;;;;;18.92;7.00;;;;;;;10.53;100.00;100792.75;5036384;28;20025;-70
2023/01/02 00:10:05;;;;;;;20.73;7.28;;;;;;;10.54;100.00;100791.88;5033033;28;20032;-70
2023/01/02 00:12:30;;;;;;;18.17;8.48;;;;;;;10.54;100.00;100786.59;5034292;28;20026;-69
2023/01/02 00:14:56;;;;;;;16.50;7.20;;;;;;;10.53;100.00;100776.97;5031368;28;20033;-70
2023/01/02 00:17:21;;;;;;;17.77;6.93;;;;;;;10.55;100.00;100772.59;5028569;28;20056;-70
2023/01/02 00:19:46;;;;;;;22.10;8.40;;;;;;;10.61;100.00;100770.06;5024735;28;20025;-69
2023/01/02 00:22:12;;;;;;;16.27;7.80;;;;;;;10.58;100.00;100775.28;5026992;28;20197;-68
2023/01/02 00:24:37;;;;;;;25.20;8.25;;;;;;;10.55;100.00;100762.06;5031921;28;20060;-70
2023/01/02 00:27:03;;;;;;;18.23;7.38;;;;;;;10.56;100.00;100766.47;5032468;28;20088;-70
2023/01/02 00:29:29;;;;;;;26.98;8.55;;;;;;;10.54;100.00;100763.84;5040752;28;20030;-68
2023/01/02 00:31:54;;;;;;;15.70;6.75;;;;;;;10.58;100.00;100765.66;5032333;28;20036;-69
2023/01/02 00:34:20;;;;;;;17.45;8.27;;;;;;;10.60;100.00;100757.78;5031816;28;20428;-70
2023/01/02 00:36:45;;;;;;;26.50;8.23;;;;;;;10.59;100.00;100761.25;5032108;28;20112;-69
2023/01/02 00:39:10;;;;;;;23.17;8.27;;;;;;;10.56;100.00;100767.34;5031243;28;20456;-69
2023/01/02 00:41:35;;;;;;;13.15;8.15;;;;;;;10.61;100.00;100764.81;5029716;28;20436;-69
2023/01/02 00:44:01;;;;;;;21.02;7.70;;;;;;;10.62;100.00;100766.56;5031893;28;20497;-70
2023/01/02 00:46:26;;;;;;;14.95;8.40;;;;;;;10.62;100.00;100766.56;5030711;28;20473;-71
2023/01/02 00:48:52;;;;;;;15.70;7.72;;;;;;;10.59;100.00;100762.16;5031629;28;20029;-71
2023/01/02 00:51:17;;;;;;;18.95;7.95;;;;;;;10.62;100.00;100761.28;5030751;28;20021;-70
2023/01/02 00:53:42;;;;;;;15.05;8.02;;;;;;;10.61;100.00;100756.91;5030282;28;20108;-70
2023/01/02 00:56:08;;;;;;;14.82;7.85;;;;;;;10.57;100.00;100753.34;5031008;28;20094;-70
2023/01/02 00:58:34;;;;;;;17.92;7.57;;;;;;;10.59;100.00;100761.25;5031262;28;20069;-69
2023/01/02 01:00:59;;;;;;;24.02;8.73;;;;;;;10.58;100.00;100762.13;5028899;28;20025;-71
2023/01/02 01:03:24;;;;;;;14.23;7.70;;;;;;;10.58;100.00;100756.84;5030435;28;20448;-69
2023/01/02 01:05:50;;;;;;;19.67;7.82;;;;;;;10.58;100.00;100749.88;5030088;28;20108;-69
2023/01/02 01:08:15;;;;;;;23.00;8.48;;;;;;;10.57;100.00;100737.56;5037300;28;20025;-69
2023/01/02 01:10:40;;;;;;;14.20;8.68;;;;;;;10.57;100.00;100739.31;5034912;28;20466;-70
2023/01/02 01:13:06;;;;;;;14.20;7.47;;;;;;;10.56;100.00;100741.03;5026988;28;20496;-69
2023/01/02 01:15:32;;;;;;;18.45;8.02;;;;;;;10.56;100.00;100724.38;5032682;28;20382;-69
2023/01/02 01:17:58;;;;;;;17.63;9.35;;;;;;;10.56;100.00;100713.88;5031480;28;20677;-70
2023/01/02 01:20:23;;;;;;;19.35;8.07;;;;;;;10.56;100.00;100719.13;5034750;28;20044;-72
2023/01/02 01:22:48;;;;;;;16.80;7.95;;;;;;;10.55;100.00;100717.34;5026174;28;20031;-70
2023/01/02 01:25:14;;;;;;;19.30;8.63;;;;;;;10.56;100.00;100719.13;5029178;28;20029;-70
2023/01/02 01:27:39;;;;;;;16.60;8.70;;;;;;;10.56;100.00;100711.22;5023432;28;20393;-69
2023/01/02 01:30:05;;;;;;;16.88;8.43;;;;;;;10.58;100.00;100715.66;5014852;28;20017;-71
2023/01/02 01:32:31;;;;;;;17.08;7.57;;;;;;;10.57;100.00;100720.91;5008882;28;20116;-69
2023/01/02 01:34:56;;;;;;;15.98;7.88;;;;;;;10.55;100.00;100717.34;5014770;28;20039;-71
2023/01/02 01:37:22;;;;;;;18.05;8.70;;;;;;;10.53;100.00;100712.06;5010437;28;20029;-71
2023/01/02 01:39:47;;;;;;;18.50;8.43;;;;;;;10.56;100.00;100720.00;5010850;28;20060;-69
2023/01/02 01:42:13;;;;;;;17.45;8.05;;;;;;;10.54;100.00;100718.19;5027116;28;20029;-70
2023/01/02 01:44:44;;;;;;;21.45;8.52;;;;;;;10.59;100.00;100724.41;5028818;28;20101;-71
2023/01/02 01:47:41;;;;;;;24.42;9.10;;;;;;;10.65;100.00;100724.53;5030305;28;20040;-70
2023/01/02 01:50:28;;;;;;;17.73;8.93;;;;;;;10.64;100.00;100741.16;5033927;28;20074;-70
2023/01/02 01:53:06;;;;;;;23.58;8.32;;;;;;;10.64;100.00;100743.81;5034933;28;20029;-70
2023/01/02 01:55:40;;;;;;;16.17;8.30;;;;;;;10.60;100.00;100742.84;5030763;28;20108;-70
2023/01/02 01:58:09;;;;;;;22.60;9.10;;;;;;;10.58;100.00;100741.06;5030207;28;20102;-70
2023/01/02 02:00:35;;;;;;;20.90;8.55;;;;;;;10.57;100.00;100736.69;5028371;28;20389;-70
2023/01/02 02:03:07;;;;;;;26.15;9.15;;;;;;;10.56;100.00;100740.19;5028005;28;20045;-70
2023/01/02 02:05:33;;;;;;;18.98;8.35;;;;;;;10.55;100.00;100741.03;5026986;28;20060;-69
2023/01/02 02:08:09;;;;;;;18.10;8.85;;;;;;;10.53;100.00;100742.75;5031009;28;20025;-70
2023/01/02 02:10:36;;;;;;;22.40;10.02;;;;;;;10.54;100.00;100748.03;5029781;28;20549;-69
2023/01/02 02:13:02;;;;;;;22.58;9.38;;;;;;;10.54;100.00;100741.88;5027921;28;20017;-70
2023/01/02 02:15:55;;;;;;;16.25;9.73;;;;;;;10.55;100.00;100743.66;5033726;28;20544;-70
2023/01/02 02:18:28;;;;;;;17.30;9.07;;;;;;;10.52;100.00;100746.25;5026251;28;20047;-71
2023/01/02 02:21:29;;;;;;;19.70;9.43;;;;;;;10.55;100.00;100743.66;5031178;28;20029;-69
2023/01/02 02:24:12;;;;;;;17.20;9.25;;;;;;;10.54;100.00;100747.16;5020560;28;20082;-70
2023/01/02 02:26:59;;;;;;;26.48;10.60;;;;;;;10.54;100.00;100748.03;5030982;28;20029;-71
2023/01/02 02:30:01;;;;;;;28.38;11.55;;;;;;;10.55;100.00;100741.03;5030658;28;20103;-70
2023/01/02 02:32:35;;;;;;;25.13;11.73;;;;;;;10.59;100.00;100745.47;5033530;28;20068;-71
2023/01/02 02:35:25;;;;;;;28.83;11.23;;;;;;;10.59;100.00;100750.72;5030336;28;20022;-70
2023/01/02 02:38:05;;;;;;;23.60;12.00;;;;;;;10.59;100.00;100750.72;5034169;28;20033;-70
2023/01/02 02:40:42;;;;;;;30.67;11.88;;;;;;;10.57;100.00;100741.94;5039990;28;20369;-70
2023/01/02 02:43:36;;;;;;;22.10;12.55;;;;;;;10.58;100.00;100730.53;5038747;28;20033;-69
2023/01/02 02:46:27;;;;;;;23.88;12.02;;;;;;;10.56;100.00;100729.66;5031986;28;20025;-70
2023/01/02 02:49:28;;;;;;;31.00;12.85;;;;;;;10.54;100.00;100721.75;5038584;28;20029;-69
2023/01/02 02:52:11;;;;;;;29.35;13.68;;;;;;;10.56;100.00;100735.78;5044102;28;20032;-69
2023/01/02 02:54:38;;;;;;;24.85;11.82;;;;;;;10.57;100.00;100713.00;5040244;28;20024;-70
2023/01/02 02:57:06;;;;;;;24.90;12.60;;;;;;;10.55;100.00;100701.56;5032103;28;20037;-68
2023/01/02 02:59:35;;;;;;;26.27;12.77;;;;;;;10.56;100.00;100705.97;5038605;28;20489;-70
2023/01/02 03:02:02;;;;;;;29.13;13.43;;;;;;;10.57;100.00;100705.13;5035446;28;20059;-69
2023/01/02 03:04:27;;;;;;;27.05;13.30;;;;;;;10.63;100.00;100705.19;5031407;28;20457;-71
2023/01/02 03:07:24;;;;;;;30.27;13.02;;;;;;;10.61;100.00;100704.28;5032451;28;20029;-70
2023/01/02 03:10:13;;;;;;;30.45;13.68;;;;;;;10.65;100.00;100705.19;5030902;28;20025;-70
2023/01/02 03:12:56;;;;;;;24.92;12.70;;;;;;;10.62;100.00;100706.94;5040525;28;20025;-70
2023/01/02 03:15:24;;;;;;;24.87;13.10;;;;;;;10.64;100.00;100712.22;5038794;28;20116;-70
2023/01/02 03:18:22;;;;;;;30.23;13.10;;;;;;;10.67;100.00;100716.66;5031330;28;20060;-70
2023/01/02 03:21:20;;;;;;;26.70;13.52;;;;;;;10.68;100.00;100707.91;5042090;28;20029;-70
2023/01/02 03:23:48;;;;;;;26.60;11.98;;;;;;;10.73;100.00;100699.19;5046102;28;20053;-71
2023/01/02 03:26:17;;;;;;;21.40;11.32;;;;;;;10.72;100.00;100710.56;5031396;28;20029;-70
2023/01/02 03:28:46;;;;;;;21.30;11.70;;;;;;;10.76;100.00;100691.34;5031203;28;20029;-70
2023/01/02 03:31:16;;;;;;;24.35;11.18;;;;;;;10.78;100.00;100710.69;5038302;28;20029;-70
2023/01/02 03:33:49;;;;;;;28.92;10.88;;;;;;;10.80;100.00;100708.94;5032785;28;20021;-70
2023/01/02 03:36:21;;;;;;;20.75;10.50;;;;;;;10.80;100.00;100708.94;5028736;28;20041;-71
2023/01/02 03:38:56;;;;;;;20.50;9.48;;;;;;;10.84;100.00;100714.22;5017888;28;20469;-70
2023/01/02 03:41:26;;;;;;;28.02;10.13;;;;;;;10.85;100.00;100718.63;5033092;28;20583;-69
2023/01/02 03:43:54;;;;;;;29.75;10.30;;;;;;;10.84;100.00;100728.28;5030184;28;20075;-70
2023/01/02 03:46:31;;;;;;;37.25;11.35;;;;;;;10.85;100.00;100724.81;5045682;28;20030;-70
2023/01/02 03:49:13;;;;;;;30.75;10.93;;;;;;;10.84;100.00;100724.75;5033307;28;20057;-70
2023/01/02 03:51:40;;;;;;;29.35;10.90;;;;;;;10.84;100.00;100720.41;5032096;28;20458;-70
2023/01/02 03:54:06;;;;;;;27.42;13.30;;;;;;;10.84;100.00;100725.66;5040382;28;20358;-70
2023/01/02 03:56:38;;;;;;;30.08;12.55;;;;;;;10.84;100.00;100724.75;5032464;28;20104;-70
2023/01/02 03:59:26;;;;;;;26.63;12.55;;;;;;;10.84;100.00;100730.03;5031415;28;20037;-68
2023/01/02 04:02:00;;;;;;;25.08;12.25;;;;;;;10.84;100.00;100737.91;5030886;28;21714;-69
2023/01/02 04:04:37;;;;;;;;;;;;;;;10.85;100.00;100731.81;5029184;28;20033;-71
2023/01/02 04:07:09;;;;;;;25.70;11.93;;;;;;;10.86;100.00;100733.56;5031621;28;19916;-69
2023/01/02 04:09:37;;;;;;;26.73;13.82;;;;;;;10.83;100.00;100733.53;5032751;28;20037;-71
2023/01/02 04:12:09;;;;;;;27.80;12.18;;;;;;;10.80;100.00;100730.00;5031160;28;20401;-70
2023/01/02 04:14:51;;;;;;;26.05;11.45;;;;;;;10.81;100.00;100736.13;5031505;28;20040;-71
2023/01/02 04:17:19;;;;;;;22.17;10.90;;;;;;;10.80;100.00;100735.25;5038012;28;20036;-70
2023/01/02 04:20:09;;;;;;;23.20;11.40;;;;;;;10.80;100.00;100735.25;5030579;28;20115;-69
2023/01/02 04:22:41;;;;;;;23.70;10.63;;;;;;;10.79;100.00;100749.28;5023245;28;20060;-71
2023/01/02 04:25:12;;;;;;;21.23;11.15;;;;;;;10.79;100.00;100754.53;5030107;28;20021;-71
2023/01/02 04:27:43;;;;;;;19.27;11.15;;;;;;;10.76;100.00;100775.56;5025289;28;20029;-71
2023/01/02 04:30:09;;;;;;;18.38;8.60;;;;;;;10.67;100.00;100777.19;5035263;28;20025;-71
2023/01/02 04:32:41;;;;;;;12.70;6.10;;;;;;;10.37;100.00;100787.22;5031769;28;20025;-70
2023/01/02 04:35:09;;;;;;;9.20;5.22;;;;;;;10.22;100.00;100800.09;5029370;28;20022;-71
2023/01/02 04:37:39;;;;;;;5.38;3.67;;;;;;;10.06;100.00;100823.47;5029935;28;20037;-71
2023/01/02 04:40:11;;;;;;;3.45;2.75;;;;;;;9.86;100.00;100816.97;5032053;28;20051;-70
2023/01/02 04:42:37;;;;;;;4.47;3.33;;;;;;;9.65;100.00;100815.69;5034691;28;20120;-71
2023/01/02 04:45:02;;;;;;;4.10;3.05;;;;;;;9.59;100.00;100823.44;5035985;28;20112;-71
2023/01/02 04:47:28;;;;;;;4.38;2.75;;;;;;;9.43;100.00;100824.91;5030821;28;20103;-70
2023/01/02 04:49:53;;;;;;;3.63;2.92;;;;;;;9.35;100.00;100837.84;5044268;28;20025;-69
2023/01/02 04:52:18;;;;;;;3.53;2.55;;;;;;;9.23;100.00;100845.47;5036085;28;20031;-70
2023/01/02 04:54:44;;;;;;;5.55;2.00;;;;;;;9.15;100.00;100850.53;5035465;28;20028;-71
2023/01/02 04:57:09;;;;;;;1.83;1.25;;;;;;;9.04;100.00;100858.16;5031819;28;20040;-70
2023/01/02 04:59:34;;;;;;;2.22;1.15;;;;;;;8.99;100.00;100853.66;5028005;28;20037;-70
2023/01/02 05:02:00;;;;;;;1.83;1.10;;;;;;;8.95;100.00;100852.69;5024566;28;20075;-71
2023/01/02 05:04:25;;;;;;;1.92;1.38;;;;;;;8.96;100.00;100859.72;5035790;28;20025;-71
2023/01/02 05:06:50;;;;;;;3.28;2.00;;;;;;;8.92;100.00;100871.00;5027966;28;20025;-71
2023/01/02 05:09:16;;;;;;;2.85;1.80;;;;;;;8.89;100.00;100889.31;5034362;28;20045;-71
2023/01/02 05:11:41;;;;;;;5.93;2.42;;;;;;;8.89;100.00;100892.81;5029531;28;20018;-71
2023/01/02 05:14:07;;;;;;;5.00;2.85;;;;;;;8.88;100.00;100898.03;5032385;28;20033;-71
2023/01/02 05:16:32;;;;;;;6.25;2.70;;;;;;;8.84;100.00;100901.44;5044270;28;20104;-70
2023/01/02 05:18:58;;;;;;;5.43;3.70;;;;;;;8.84;100.00;100912.78;5050546;28;20105;-71
2023/01/02 05:24:07;;;;;;;7.82;3.72;;;;;;;8.82;100.00;100919.75;5029142;28;20044;-71
2023/01/02 05:26:32;;;;;;;6.75;3.83;;;;;;;8.81;100.00;100932.84;5041455;28;20492;-70
2023/01/02 05:28:59;;;;;;;7.78;4.38;;;;;;;8.84;100.00;100938.16;5030402;28;20029;-69
2023/01/02 05:31:25;;;;;;;7.93;4.50;;;;;;;8.78;100.00;100937.16;5037716;28;20014;-70
2023/01/02 05:33:52;;;;;;;6.35;3.70;;;;;;;8.75;100.00;100952.81;5030585;28;20418;-70
2023/01/02 05:36:18;;;;;;;11.50;4.82;;;;;;;8.73;100.00;100967.63;5030094;28;20021;-71
2023/01/02 05:38:43;;;;;;;7.03;3.20;;;;;;;8.62;100.00;100966.47;5030926;28;20444;-71
2023/01/02 05:41:08;;;;;;;6.95;3.58;;;;;;;8.62;100.00;100968.22;5030046;28;20439;-70
2023/01/02 05:43:36;;;;;;;7.53;2.38;;;;;;;8.56;100.00;100974.16;5030157;28;20029;-70
2023/01/02 05:46:11;;;;;;;3.85;2.40;;;;;;;8.51;100.00;100986.28;5029978;28;20038;-70
2023/01/02 05:48:37;;;;;;;9.00;2.75;;;;;;;8.47;100.00;100989.66;5032208;28;20045;-70
2023/01/02 05:51:04;;;;;;;12.57;2.80;;;;;;;8.42;100.00;100999.97;5027599;28;20057;-70
2023/01/02 05:53:29;;;;;;;13.77;2.60;;;;;;;8.39;100.00;101011.25;5032572;28;20032;-71
2023/01/02 05:56:05;;;;;;;9.52;2.75;;;;;;;8.38;100.00;101008.59;5035875;28;20021;-71
2023/01/02 05:58:36;;;;;;;7.68;2.50;;;;;;;8.32;100.00;101017.19;5061581;28;20562;-70
2023/01/02 06:01:06;;;;;;;18.45;3.13;;;;;;;8.28;100.00;101031.06;5032754;28;20095;-71
2023/01/02 06:03:32;;;;;;;10.60;2.85;;;;;;;8.23;100.00;101017.84;5030669;28;20025;-71
2023/01/02 06:06:02;;;;;;;17.05;3.85;;;;;;;8.25;100.00;101030.97;5026803;28;20029;-71
2023/01/02 06:08:27;;;;;;;8.20;3.10;;;;;;;8.21;100.00;101032.63;5041376;28;20048;-71
2023/01/02 06:10:53;;;;;;;14.07;3.20;;;;;;;8.21;100.00;101035.22;5036024;28;20022;-71
2023/01/02 06:13:18;;;;;;;8.48;2.60;;;;;;;8.20;100.00;101037.81;5025419;28;20489;-70
2023/01/02 06:15:43;;;;;;;10.00;2.15;;;;;;;8.18;100.00;101039.50;5027046;28;20029;-70
2023/01/02 06:18:08;;;;;;;16.23;2.15;;;;;;;8.15;100.00;101039.41;5032075;28;20033;-70
2023/01/02 06:20:34;;;;;;;10.18;1.73;;;;;;;8.16;100.00;101042.06;5035552;28;20030;-70
2023/01/02 06:22:59;;;;;;;6.68;1.58;;;;;;;8.16;100.00;101052.56;5037379;28;20079;-70
2023/01/02 06:25:26;;;;;;;8.68;1.38;;;;;;;8.16;100.00;101051.69;5030119;28;20446;-70
2023/01/02 06:27:51;;;;;;;8.70;1.85;;;;;;;8.15;100.00;101065.63;5032071;28;20018;-70
2023/01/02 06:30:16;;;;;;;10.98;1.50;;;;;;;8.14;100.00;101064.75;5026789;28;20044;-70
2023/01/02 06:32:42;;;;;;;6.78;2.10;;;;;;;8.12;100.00;101069.03;5026250;28;20029;-71
2023/01/02 06:35:07;;;;;;;13.38;1.92;;;;;;;8.13;100.00;101077.81;5026622;28;20498;-70
2023/01/02 06:37:33;;;;;;;13.05;2.85;;;;;;;8.10;100.00;101084.72;5032900;28;20029;-72
2023/01/02 06:39:58;;;;;;;12.68;3.47;;;;;;;8.11;100.00;101090.84;5029833;28;20112;-70
2023/01/02 06:42:23;;;;;;;15.32;3.42;;;;;;;8.15;100.00;101099.69;5031146;28;20532;-71
2023/01/02 06:44:49;;;;;;;16.45;3.65;;;;;;;8.14;100.00;101095.28;5033465;28;20462;-71
2023/01/02 06:47:14;;;;;;;13.23;3.92;;;;;;;8.16;100.00;101106.72;5036142;28;20087;-69
2023/01/02 06:49:39;;;;;;;9.93;4.63;;;;;;;8.16;100.00;101104.97;5047210;28;20461;-70
2023/01/02 06:52:04;;;;;;;12.35;3.75;;;;;;;8.14;100.00;101108.38;5033631;28;20037;-70
2023/01/02 06:54:31;;;;;;;13.07;3.03;;;;;;;8.11;100.00;101119.66;5038912;28;20028;-70
2023/01/02 06:56:56;;;;;;;11.45;3.33;;;;;;;8.14;100.00;101126.75;5035269;28;20029;-69
2023/01/02 06:59:22;;;;;;;12.80;2.70;;;;;;;8.14;100.00;101121.50;5041440;28;20890;-70
2023/01/02 07:01:47;;;;;;;14.80;2.80;;;;;;;8.16;100.00;101125.94;5032154;28;20060;-71
2023/01/02 07:04:16;;;;;;;17.05;2.78;;;;;;;8.18;100.00;101128.63;5032481;28;20397;-69
2023/01/02 07:06:41;;;;;;;12.82;2.95;;;;;;;8.19;100.00;101136.56;5030284;28;20112;-70
2023/01/02 07:09:06;;;;;;;10.80;3.30;;;;;;;8.18;100.00;101145.25;5032554;28;20121;-69
2023/01/02 07:11:32;;;;;;;11.70;3.67;;;;;;;8.18;100.00;101160.06;5031419;28;20026;-70
2023/01/02 07:13:57;;;;;;;15.50;4.03;;;;;;;8.20;100.00;101161.91;5036150;28;20025;-70
2023/01/02 07:16:23;;;;;;;9.52;4.47;;;;;;;8.20;100.00;101167.13;5039943;28;20020;-70
2023/01/02 07:18:53;;;;;;;15.50;4.50;;;;;;;8.21;100.00;101170.66;5035161;28;20037;-71
2023/01/02 07:21:19;;;;;;;10.77;3.55;;;;;;;8.21;100.00;101178.53;5029867;28;20117;-70
2023/01/02 07:23:45;;;;;;;10.98;3.28;;;;;;;8.24;100.00;101181.25;5030155;28;20064;-71
2023/01/02 07:26:11;;;;;;;6.78;2.83;;;;;;;8.27;100.00;101178.72;5032018;28;20147;-72
2023/01/02 07:28:37;;;;;;;9.32;2.75;;;;;;;8.24;100.00;101183.88;5029392;28;20030;-70
2023/01/02 07:31:05;;;;;;;11.30;3.17;;;;;;;8.30;100.00;101197.16;5044006;28;20021;-70
2023/01/02 07:33:32;;;;;;;7.70;2.80;;;;;;;8.26;100.00;101197.91;5032087;28;20104;-71
2023/01/02 07:35:58;;;;;;;6.80;2.88;;;;;;;8.28;100.00;101209.34;5032038;28;20029;-71
2023/01/02 07:38:25;;;;;;;6.95;2.50;;;;;;;8.24;100.00;101221.44;5035247;28;20031;-70
2023/01/02 07:40:50;;;;;;;9.60;2.53;;;;;;;8.30;100.00;101228.63;5032467;28;20036;-71
2023/01/02 07:43:15;;;;;;;11.43;3.25;;;;;;;8.27;100.00;101233.78;5045563;28;20021;-69
2023/01/02 07:45:41;;;;;;;5.93;3.13;;;;;;;8.28;100.00;101241.69;5042187;28;20025;-70
2023/01/02 07:48:06;;;;;;;4.05;2.03;;;;;;;8.29;100.00;101242.59;5033768;28;20448;-70
2023/01/02 07:50:31;;;;;;;7.28;2.67;;;;;;;8.32;100.00;101254.91;5046891;28;20465;-70
2023/01/02 07:52:57;;;;;;;9.10;2.47;;;;;;;8.30;100.00;101264.44;5044580;28;20092;-70
2023/01/02 07:55:22;;;;;;;5.43;2.63;;;;;;;8.30;100.00;101275.81;5035985;28;20040;-70
2023/01/02 07:57:47;;;;;;;7.70;2.80;;;;;;;8.34;100.00;101282.97;5030929;28;20397;-70
2023/01/02 08:00:17;;;;;;;10.05;2.88;;;;;;;8.30;100.00;101285.41;5029957;28;20087;-70
2023/01/02 08:02:42;;;;;;;6.18;2.65;;;;;;;8.29;100.00;101284.53;5026165;28;20497;-69
2023/01/02 08:05:08;;;;;;;8.02;2.03;;;;;;;8.29;100.00;101292.41;5030923;28;20025;-70
2023/01/02 08:07:34;;;;;;;5.45;1.55;;;;;;;8.30;100.00;101299.41;5040877;28;20021;-71
2023/01/02 08:09:59;;;;;;;5.30;1.85;;;;;;;8.31;100.00;101300.31;5038386;28;20052;-70
2023/01/02 08:12:25;;;;;;;6.68;1.15;;;;;;;8.30;100.00;101296.78;5032827;28;20545;-71
2023/01/02 08:14:51;;;;;;;4.65;1.30;;;;;;;8.33;100.00;101304.78;5019311;28;20030;-70
2023/01/02 08:17:16;;;;;;;5.63;1.13;;;;;;;8.37;100.00;101309.28;5026026;28;20155;-70
2023/01/02 08:19:41;;;;;;;2.83;1.00;;;;;;;8.30;100.00;101306.41;5032639;28;20042;-69
2023/01/02 08:22:07;;;;;;;5.50;1.10;;;;;;;8.30;100.00;101306.41;5027305;28;20028;-71
2023/01/02 08:24:32;;;;;;;3.58;0.73;;;;;;;8.27;100.00;101308.09;5029305;28;20456;-72
2023/01/02 08:26:57;;;;;;;6.63;1.67;;;;;;;8.23;100.00;101318.41;5033290;28;20037;-71
2023/01/02 08:29:23;;;;;;;5.15;0.88;;;;;;;8.28;100.00;101335.19;5031395;28;20116;-71
2023/01/02 08:31:48;;;;;;;4.47;1.05;;;;;;;8.22;100.00;101333.25;5029909;28;20060;-72
2023/01/02 08:34:14;;;;;;;1.77;0.57;;;;;;;8.23;100.00;101336.75;5028334;28;20071;-71
2023/01/02 08:36:40;;;;;;;6.13;0.90;;;;;;;8.23;100.00;101347.25;5031908;28;20029;-74
2023/01/02 08:39:06;;;;;;;3.13;0.80;;;;;;;8.18;100.00;101349.72;5037745;28;20025;-72
2023/01/02 08:41:34;;;;;;;2.75;0.80;;;;;;;8.19;100.00;101350.59;5036623;28;20470;-72
2023/01/02 08:43:59;;;;;;;4.47;0.73;;;;;;;8.20;100.00;101362.88;5040334;28;20108;-71
2023/01/02 08:46:25;;;;;;;7.47;1.10;;;;;;;8.20;100.00;101365.50;5039850;28;20100;-73
2023/01/02 08:48:51;;;;;;;8.50;1.55;;;;;;;8.21;100.00;101372.53;5030215;28;20047;-71
2023/01/02 08:51:16;;;;;;;5.05;0.98;;;;;;;8.22;100.00;101372.59;5032158;28;20492;-71
2023/01/02 08:53:41;;;;;;;6.95;1.30;;;;;;;8.24;100.00;101375.25;5034343;28;20045;-71
2023/01/02 08:56:23;;;;;;;6.63;0.68;;;;;;;8.21;100.00;101380.41;5035452;28;20044;-72
2023/01/02 08:58:50;;;;;;;7.90;2.00;;;;;;;8.25;100.00;101377.03;5031661;28;20471;-70
2023/01/02 09:01:16;;;;;;;7.68;1.10;;;;;;;8.24;100.00;101386.63;5035720;28;20136;-69
2023/01/02 09:03:41;;;;;;;8.82;2.00;;;;;;;8.28;100.00;101377.13;5040367;28;20179;-70
2023/01/02 09:06:06;;;;;;;5.43;1.00;;;;;;;8.34;100.00;101385.22;5033405;28;20932;-68
2023/01/02 09:08:32;;;;;;;4.43;0.68;;;;;;;8.30;100.00;101395.53;5037964;28;20415;-69
2023/01/02 09:10:57;;;;;;;9.10;1.55;;;;;;;8.29;100.00;101405.16;5038096;28;20065;-70
2023/01/02 09:13:22;;;;;;;8.25;0.98;;;;;;;8.31;100.00;101405.19;5036792;28;20021;-71
2023/01/02 09:15:48;;;;;;;5.85;0.98;;;;;;;8.29;100.00;101410.41;5033068;28;20025;-70
2023/01/02 09:18:13;;;;;;;5.80;1.00;;;;;;;8.28;100.00;101412.09;5031870;28;20025;-69
2023/01/02 09:20:39;;;;;;;3.22;1.00;;;;;;;8.27;100.00;101417.31;5031258;28;20410;-70
2023/01/02 09:23:04;;;;;;;5.03;1.10;;;;;;;8.24;100.00;101419.81;5031775;28;20033;-69
2023/01/02 09:25:30;;;;;;;10.40;1.48;;;;;;;8.20;100.00;101426.66;5032494;28;20031;-71
2023/01/02 09:27:55;;;;;;;10.88;1.58;;;;;;;8.20;100.00;101416.19;5033982;28;20033;-70
2023/01/02 09:30:20;;;;;;;3.33;0.88;;;;;;;8.21;100.00;101417.97;5028707;28;20025;-70
2023/01/02 09:32:47;;;;;;;7.68;1.20;;;;;;;8.27;100.00;101418.22;5032526;28;20033;-68
2023/01/02 09:35:13;;;;;;;9.85;1.52;;;;;;;8.23;100.00;101418.94;5035807;28;20037;-68
2023/01/02 09:37:39;;;;;;;7.95;1.10;;;;;;;8.23;100.00;101407.53;5039415;28;20043;-69
2023/01/02 09:40:05;;;;;;;9.30;1.65;;;;;;;8.22;100.00;101395.25;5034702;28;20084;-69
2023/01/02 09:42:31;;;;;;;4.35;1.10;;;;;;;8.25;100.00;101406.75;5031750;28;20036;-70
2023/01/02 09:44:59;;;;;;;5.63;1.00;;;;;;;8.26;100.00;101415.50;5033762;28;20029;-70
2023/01/02 09:47:28;;;;;;;4.78;1.30;;;;;;;8.31;100.00;101416.56;5035506;28;20033;-70
2023/01/02 09:49:55;;;;;;;5.38;1.00;;;;;;;8.30;100.00;101412.16;5031564;28;20044;-69
2023/01/02 09:52:26;;;;;;;9.45;1.48;;;;;;;8.36;100.00;101422.00;5034298;28;20029;-69
2023/01/02 09:54:52;;;;;;;7.30;1.30;;;;;;;8.42;100.00;101435.31;5033921;28;20481;-68
2023/01/02 09:57:26;;;;;;;9.82;1.15;;;;;;;8.51;100.00;101448.78;5035033;28;20053;-70
2023/01/02 10:00:04;;;;;;;7.47;1.50;;;;;;;8.52;100.00;101450.56;5035875;28;20052;-69
2023/01/02 10:02:36;;;;;;;5.43;1.00;;;;;;;8.55;100.00;101449.78;5034152;28;20033;-69
2023/01/02 10:05:28;;;;;;;5.55;0.93;;;;;;;8.67;100.00;101460.69;5036791;28;20037;-71
2023/01/02 10:08:10;;;;;;;8.60;1.35;;;;;;;8.82;100.00;101472.53;5032911;28;20022;-71
2023/01/02 10:10:47;;;;;;;4.80;1.75;;;;;;;8.78;100.00;101475.06;5035296;28;20032;-70
2023/01/02 10:13:23;;;;;;;11.75;1.40;;;;;;;8.83;100.00;101476.94;5032860;28;20102;-70
2023/01/02 10:15:52;;;;;;;12.40;1.58;;;;;;;8.83;100.00;101463.81;5035788;28;20075;-69
2023/01/02 10:18:25;;;;;;;7.82;2.25;;;;;;;8.81;100.00;101462.91;5034717;28;20025;-68
2023/01/02 10:20:56;;;;;;;12.10;1.33;;;;;;;8.76;100.00;101466.25;5030567;28;20037;-69
2023/01/02 10:23:34;;;;;;;6.47;1.10;;;;;;;8.83;100.00;101456.88;5046291;28;20029;-68
2023/01/02 10:26:04;;;;;;;4.30;0.90;;;;;;;8.92;100.00;101458.88;5026936;28;20378;-68
2023/01/02 10:28:44;;;;;;;6.85;1.40;;;;;;;8.97;100.00;101454.69;5034693;28;20021;-70
2023/01/02 10:31:19;;;;;;;12.35;1.58;;;;;;;9.00;100.00;101452.16;5038269;28;20024;-68
2023/01/02 10:33:46;;;;;;;5.13;1.35;;;;;;;9.03;100.00;101467.13;5036005;28;20029;-68
2023/01/02 10:36:25;;;;;;;7.30;1.30;;;;;;;9.06;100.00;101470.75;5040130;28;20041;-68
2023/01/02 10:39:03;;;;;;;13.45;1.65;;;;;;;9.04;100.00;101477.66;5029826;28;20101;-69
2023/01/02 10:41:30;;;;;;;5.82;1.40;;;;;;;8.99;100.00;101484.50;5036877;28;20060;-68
2023/01/02 10:44:02;;;;;;;4.18;1.20;;;;;;;9.07;100.00;101474.25;5043355;28;20376;-74
2023/01/02 10:46:34;;;;;;;5.32;2.13;;;;;;;9.26;100.00;101471.41;5040575;28;20106;-69
2023/01/02 10:49:00;;;;;;;7.45;1.00;;;;;;;9.70;100.00;101471.00;5046916;28;20548;-68
2023/01/02 10:51:28;;;;;;;5.75;1.00;;;;;;;10.05;100.00;101489.56;5035577;28;20029;-70
2023/01/02 10:54:06;;;;;;;11.45;1.38;;;;;;;10.13;100.00;101488.03;5035800;28;21929;-69
2023/01/02 10:56:33;;;;;;;6.57;1.27;;;;;;;10.37;100.00;101484.31;5032619;28;20037;-69
2023/01/02 10:59:00;;;;;;;7.18;1.40;;;;;;;10.70;100.00;101486.13;5031564;28;20112;-70
2023/01/02 11:01:26;;;;;;;9.13;1.10;;;;;;;11.04;100.00;101480.78;5040255;28;20403;-69
2023/01/02 11:03:54;;;;;;;4.80;1.27;;;;;;;11.06;100.00;101490.53;5031661;28;20025;-69
2023/01/02 11:06:30;;;;;;;3.95;1.30;;;;;;;11.14;100.00;101504.78;5032014;28;20411;-69
2023/01/02 11:08:58;;;;;;;5.60;1.25;;;;;;;10.75;100.00;101504.66;5034013;28;20101;-70
2023/01/02 11:11:24;;;;;;;6.35;1.40;;;;;;;10.41;100.00;101504.59;5029982;28;20033;-69
2023/01/02 11:13:53;;;;;;;11.60;1.52;;;;;;;9.94;100.00;101506.72;5033827;28;20036;-70
2023/01/02 11:16:19;;;;;;;6.47;1.30;;;;;;;9.92;100.00;101509.31;5033429;28;20116;-70
2023/01/02 11:18:51;;;;;;;7.32;1.10;;;;;;;9.98;100.00;101524.38;5033918;28;20564;-69
2023/01/02 11:21:29;;;;;;;3.85;1.15;;;;;;;9.86;100.00;101534.53;5031288;28;20068;-69
2023/01/02 11:24:15;;;;;;;12.30;4.70;;;;;;;9.66;100.00;101526.00;5033438;28;20029;-69
2023/01/02 11:26:43;;;;;;;9.45;1.65;;;;;;;9.60;100.00;101531.97;5034753;28;20037;-71
2023/01/02 11:29:16;;;;;;;6.07;1.00;;;;;;;9.64;100.00;101527.72;5037274;28;20491;-70